createdAt,value
2022-10-06T00:02:35.489Z,73.13
2022-10-06T00:07:38.956Z,72.26
2022-10-06T00:12:46.644Z,73.55
2022-10-06T00:17:51.372Z,72.45
2022-10-06T00:22:56.454Z,72.42
2022-10-06T00:28:01.326Z,72.51
2022-10-06T00:33:05.181Z,71.89
2022-10-06T00:38:09.300Z,72.91
2022-10-06T00:43:52.269Z,73.21
2022-10-06T00:49:32.385Z,72.41
2022-10-06T00:54:37.433Z,73.87
2022-10-06T00:59:42.809Z,74.44
2022-10-06T01:04:51.676Z,74.27
2022-10-06T01:09:56.693Z,74.26
2022-10-06T01:15:00.976Z,73.50
2022-10-06T01:20:09.226Z,73.38
2022-10-06T01:25:16.592Z,73.28
2022-10-06T01:30:26.082Z,73.94
2022-10-06T01:35:29.669Z,73.26
2022-10-06T01:40:34.622Z,73.73
2022-10-06T01:45:38.880Z,73.87
2022-10-06T01:50:42.890Z,73.87
2022-10-06T01:55:47.682Z,74.43
2022-10-06T02:00:55.187Z,74.32
2022-10-06T02:05:58.599Z,74.34
2022-10-06T02:11:09.187Z,74.11
2022-10-06T02:16:17.491Z,73.95
2022-10-06T02:21:23.496Z,73.93
2022-10-06T02:26:28.965Z,74.71
2022-10-06T02:31:32.727Z,75.23
2022-10-06T02:36:36.593Z,74.86
2022-10-06T02:41:42.928Z,74.89
2022-10-06T02:46:46.712Z,74.81
2022-10-06T02:51:50.304Z,75.34
2022-10-06T02:56:55.122Z,75.06
2022-10-06T03:01:58.673Z,75.40
2022-10-06T03:07:02.186Z,75.75
2022-10-06T03:12:11.332Z,75.17
2022-10-06T03:17:18.704Z,74.59
2022-10-06T03:22:27.718Z,75.38
2022-10-06T03:27:34.864Z,75.36
2022-10-06T03:32:40.660Z,75.11
2022-10-06T03:37:46.254Z,75.61
2022-10-06T03:42:52.239Z,74.97
2022-10-06T03:47:56.701Z,74.57
2022-10-06T03:53:00.320Z,74.37
2022-10-06T03:58:05.313Z,74.49
2022-10-06T04:03:09.217Z,74.83
2022-10-06T04:08:12.660Z,74.58
2022-10-06T04:13:18.642Z,74.63
2022-10-06T04:18:22.242Z,74.78
2022-10-06T04:23:26.053Z,75.43
2022-10-06T04:28:31.578Z,75.18
2022-10-06T04:33:35.557Z,74.71
2022-10-06T04:38:39.507Z,75.32
2022-10-06T04:43:46.625Z,75.25
2022-10-06T04:48:52.365Z,75.70
2022-10-06T04:53:56.077Z,75.76
2022-10-06T04:59:02.306Z,76.18
2022-10-06T05:04:08.116Z,76.54
2022-10-06T05:09:14.813Z,76.85
2022-10-06T05:14:33.613Z,77.83
2022-10-06T05:19:37.565Z,77.53
2022-10-06T05:24:41.716Z,76.56
2022-10-06T05:29:46.965Z,76.34
2022-10-06T05:34:50.750Z,77.17
2022-10-06T05:39:54.329Z,77.13
2022-10-06T05:44:59.596Z,77.53
2022-10-06T05:50:03.673Z,76.58
2022-10-06T05:55:08.880Z,75.46
2022-10-06T06:00:15.529Z,73.56
2022-10-06T06:05:21.925Z,72.25
2022-10-06T06:10:25.852Z,70.81
2022-10-06T06:15:48.823Z,69.72
2022-10-06T06:20:57.701Z,68.21
2022-10-06T06:26:02.907Z,67.18
2022-10-06T06:31:16.174Z,65.09
2022-10-06T06:36:25.048Z,66.13
2022-10-06T06:41:30.177Z,66.09
2022-10-06T06:46:45.950Z,65.54
2022-10-06T06:51:54.432Z,63.87
2022-10-06T06:57:00.757Z,63.31
2022-10-06T07:02:05.806Z,60.06
2022-10-06T07:07:13.755Z,58.85
2022-10-06T07:12:18.443Z,57.91
2022-10-06T07:17:48.914Z,55.11
2022-10-06T07:23:10.570Z,55.74
2022-10-06T07:28:17.109Z,54.96
2022-10-06T07:33:22.146Z,54.37
2022-10-06T07:38:27.681Z,54.11
2022-10-06T07:43:32.812Z,54.09
2022-10-06T07:48:39.263Z,52.07
2022-10-06T07:53:44.838Z,53.40
2022-10-06T07:58:58.817Z,51.08
2022-10-06T08:04:06.884Z,52.26
2022-10-06T08:09:10.735Z,50.89
2022-10-06T08:14:15.220Z,49.11
2022-10-06T08:19:19.973Z,49.54
2022-10-06T08:24:23.430Z,48.35
2022-10-06T08:29:27.145Z,48.68
2022-10-06T08:34:31.918Z,47.96
2022-10-06T08:39:35.766Z,48.07
2022-10-06T08:44:44.478Z,47.26
2022-10-06T08:49:52.397Z,46.98
2022-10-06T08:55:08.989Z,46.33
2022-10-06T09:00:18.037Z,44.88
2022-10-06T09:05:30.701Z,44.78
2022-10-06T09:11:04.544Z,45.41
2022-10-06T09:16:11.554Z,43.27
2022-10-06T09:21:19.258Z,44.51
2022-10-06T09:26:24.588Z,44.39
2022-10-06T09:31:29.685Z,42.35
2022-10-06T09:36:57.740Z,44.46
2022-10-06T09:42:08.046Z,44.02
2022-10-06T09:47:40.569Z,43.31
2022-10-06T09:53:03.618Z,44.29
2022-10-06T09:58:20.621Z,43.29
2022-10-06T10:03:27.279Z,43.97
2022-10-06T10:08:32.191Z,42.47
2022-10-06T10:13:44.161Z,41.10
2022-10-06T10:18:51.052Z,41.25
2022-10-06T10:23:57.404Z,41.25
2022-10-06T10:29:15.203Z,40.40
2022-10-06T10:34:30.286Z,40.61
2022-10-06T10:39:39.871Z,40.56
2022-10-06T10:44:50.660Z,40.28
2022-10-06T10:50:00.788Z,37.88
2022-10-06T10:55:19.775Z,39.11
2022-10-06T11:00:28.251Z,38.72
2022-10-06T11:05:46.309Z,37.82
2022-10-06T11:10:58.281Z,37.90
2022-10-06T11:16:20.202Z,38.25
2022-10-06T11:21:28.581Z,38.79
2022-10-06T11:26:44.747Z,38.53
2022-10-06T11:31:58.406Z,37.08
2022-10-06T11:37:09.472Z,38.14
2022-10-06T11:42:23.943Z,39.74
2022-10-06T11:47:35.430Z,39.02
2022-10-06T11:52:46.861Z,38.91
2022-10-06T11:58:41.428Z,39.66
2022-10-06T12:03:50.102Z,39.24
2022-10-06T12:08:53.563Z,41.43
2022-10-06T12:19:30.420Z,42.59
2022-10-06T12:24:41.482Z,41.97
2022-10-06T12:29:50.495Z,41.58
2022-10-06T12:35:03.207Z,43.26
2022-10-06T12:40:59.859Z,43.98
2022-10-06T12:46:13.087Z,43.92
2022-10-06T12:51:30.473Z,44.18
2022-10-06T12:56:35.974Z,44.57
2022-10-06T13:01:41.281Z,43.90
2022-10-06T13:06:50.882Z,44.94
2022-10-06T13:11:54.721Z,43.56
2022-10-06T13:17:03.208Z,42.27
2022-10-06T13:22:07.052Z,44.29
2022-10-06T13:27:18.068Z,42.60
2022-10-06T13:32:22.993Z,42.56
2022-10-06T13:37:26.820Z,43.32
2022-10-06T13:42:30.977Z,44.48
2022-10-06T13:47:36.335Z,44.91
2022-10-06T13:52:41.735Z,45.15
2022-10-06T13:57:46.837Z,44.65
2022-10-06T14:02:54.951Z,46.09
2022-10-06T14:08:01.785Z,47.32
2022-10-06T14:13:09.399Z,48.67
2022-10-06T14:18:21.520Z,48.96
2022-10-06T14:23:53.181Z,49.60
2022-10-06T14:28:57.955Z,49.03
2022-10-06T14:34:03.906Z,49.92
2022-10-06T14:39:10.485Z,50.17
2022-10-06T14:44:15.866Z,49.90
2022-10-06T14:49:21.612Z,50.25
2022-10-06T14:54:25.420Z,50.71
2022-10-06T14:59:28.916Z,51.44
2022-10-06T15:04:33.726Z,52.20
2022-10-06T15:09:37.463Z,51.80
2022-10-06T15:14:40.819Z,52.30
2022-10-06T15:19:45.685Z,52.97
2022-10-06T15:24:51.454Z,53.59
2022-10-06T15:29:57.537Z,53.78
2022-10-06T15:35:02.372Z,53.90
2022-10-06T15:40:07.207Z,54.09
2022-10-06T15:45:11.619Z,55.21
2022-10-06T15:50:18.986Z,55.69
2022-10-06T15:55:22.550Z,56.20
2022-10-06T16:00:25.952Z,56.49
2022-10-06T16:05:48.483Z,57.37
2022-10-06T16:10:51.922Z,57.82
2022-10-06T16:15:55.501Z,59.32
2022-10-06T16:21:00.415Z,59.60
2022-10-06T16:26:03.903Z,60.23
2022-10-06T16:31:07.430Z,59.99
2022-10-06T16:36:13.523Z,60.74
2022-10-06T16:41:17.075Z,60.96
2022-10-06T16:46:22.739Z,61.30
2022-10-06T16:51:29.055Z,61.39
2022-10-06T16:56:34.572Z,62.01
2022-10-06T17:01:39.025Z,62.17
2022-10-06T17:06:45.504Z,62.75
2022-10-06T17:11:50.876Z,62.99
2022-10-06T17:16:56.135Z,63.31
2022-10-06T17:22:01.023Z,63.45
2022-10-06T17:27:05.440Z,63.99
2022-10-06T17:32:09.679Z,64.40
2022-10-06T17:37:14.472Z,64.75
2022-10-06T17:42:18.317Z,66.00
2022-10-06T17:47:21.806Z,66.83
2022-10-06T17:52:26.900Z,67.74
2022-10-06T17:57:31.210Z,67.15
2022-10-06T18:02:36.373Z,66.75
2022-10-06T18:07:41.797Z,67.16
2022-10-06T18:12:46.650Z,67.56
2022-10-06T18:17:52.531Z,68.42
2022-10-06T18:22:57.643Z,68.92
2022-10-06T18:28:01.209Z,67.96
2022-10-06T18:38:37.210Z,69.93
2022-10-06T18:43:40.779Z,69.58
2022-10-06T18:48:56.145Z,69.21
2022-10-06T18:54:02.491Z,69.49
2022-10-06T18:59:08.779Z,70.31
2022-10-06T19:04:14.212Z,69.84
2022-10-06T19:09:21.249Z,70.06
2022-10-06T19:14:29.900Z,70.25
2022-10-06T19:19:34.117Z,69.77
2022-10-06T19:24:41.065Z,70.67
2022-10-06T19:29:47.048Z,70.57
2022-10-06T19:34:50.557Z,69.89
2022-10-06T19:39:55.942Z,70.73
2022-10-06T19:44:59.434Z,70.21
2022-10-06T19:50:08.688Z,70.79
2022-10-06T19:55:15.848Z,70.51
2022-10-06T20:00:19.455Z,70.43
2022-10-06T20:05:23.294Z,70.18
2022-10-06T20:10:28.070Z,70.85
2022-10-06T20:15:32.296Z,70.25
2022-10-06T20:20:36.171Z,71.29
2022-10-06T20:25:41.224Z,71.34
2022-10-06T20:30:50.035Z,70.42
2022-10-06T20:35:53.661Z,70.08
2022-10-06T20:40:58.754Z,71.19
2022-10-06T20:46:02.685Z,71.10
2022-10-06T20:51:12.354Z,70.68
2022-10-06T20:56:18.181Z,70.53
2022-10-06T21:01:23.179Z,70.75
2022-10-06T21:06:26.996Z,70.52
2022-10-06T21:11:32.701Z,70.10
2022-10-06T21:16:37.489Z,70.11
2022-10-06T21:21:42.393Z,71.27
2022-10-06T21:26:48.277Z,71.18
2022-10-06T21:31:52.500Z,71.47
2022-10-06T21:36:57.500Z,71.01
2022-10-06T21:42:02.275Z,70.81
2022-10-06T21:47:05.950Z,72.27
2022-10-06T21:52:10.588Z,71.84
2022-10-06T21:57:15.816Z,72.12
2022-10-06T22:02:19.496Z,71.23
2022-10-06T22:07:22.848Z,71.78
2022-10-06T22:12:27.632Z,71.92
2022-10-06T22:17:31.009Z,71.42
2022-10-06T22:22:34.446Z,72.11
2022-10-06T22:27:39.218Z,71.87
2022-10-06T22:32:42.642Z,71.42
2022-10-06T22:37:46.729Z,71.80
2022-10-06T22:42:52.186Z,72.27
2022-10-06T22:47:55.956Z,71.18
2022-10-06T22:52:59.335Z,70.30
2022-10-06T22:58:04.051Z,71.25
2022-10-06T23:03:07.940Z,71.41
2022-10-06T23:08:11.389Z,71.68
2022-10-06T23:13:16.210Z,71.30
2022-10-06T23:18:19.853Z,71.10
2022-10-06T23:23:23.510Z,71.23
2022-10-06T23:28:28.331Z,72.22
2022-10-06T23:33:32.701Z,72.46
2022-10-06T23:38:37.273Z,71.33
2022-10-06T23:43:42.085Z,71.40
2022-10-06T23:48:45.457Z,72.33
2022-10-06T23:53:48.850Z,72.61
2022-10-06T23:58:53.616Z,72.68
